Time;durP1;ratioP1;P1;durP2;ratioP2;P2;SDS_P1;SDS_P2;PMS_P1;PMS_P2;Temp;Humidity;BMP_temperature;BMP_pressure;BME280_temperature;BME280_humidity;BME280_pressure;Samples;Min_cycle;Max_cycle;Signal;HPM_P1;HPM_P2
2021/07/11 00:00:54;;;;;;;20.15;10.25;;;;;;;17.75;64.87;100949.52;1656152;83;27444;-75
2021/07/11 00:03:20;;;;;;;11.60;9.38;;;;;;;17.72;65.04;100941.59;1660707;83;25821;-76
2021/07/11 00:05:51;;;;;;;18.90;9.95;;;;;;;17.71;65.17;100938.02;1633306;85;25839;-76
2021/07/11 00:08:20;;;;;;;16.75;9.93;;;;;;;17.68;65.25;100932.80;1652432;83;26006;-75
2021/07/11 00:10:46;;;;;;;16.82;10.13;;;;;;;17.66;65.33;100937.46;1632748;85;25820;-75
2021/07/11 00:13:12;;;;;;;14.10;10.10;;;;;;;17.64;65.45;100938.50;1689731;82;27370;-76
2021/07/11 00:15:38;;;;;;;16.75;10.78;;;;;;;17.62;65.53;100941.32;1693040;82;25770;-75
2021/07/11 00:18:04;;;;;;;17.92;10.28;;;;;;;17.60;65.71;100943.75;1693104;82;25785;-75
2021/07/11 00:20:32;;;;;;;15.50;10.28;;;;;;;17.57;65.78;100938.05;1655947;82;25867;-75
2021/07/11 00:23:01;;;;;;;13.93;10.70;;;;;;;17.53;65.85;100941.45;1684621;83;25751;-75
2021/07/11 00:25:27;;;;;;;14.73;10.03;;;;;;;17.50;65.97;100948.44;1692855;81;28107;-75
2021/07/11 00:27:55;;;;;;;17.65;10.15;;;;;;;17.47;66.05;100942.36;1683572;81;25705;-75
2021/07/11 00:30:26;;;;;;;15.80;10.18;;;;;;;17.44;66.17;100938.50;1688509;81;25719;-75
2021/07/11 00:32:54;;;;;;;14.53;9.70;;;;;;;17.42;66.30;100939.09;1684159;81;25771;-75
2021/07/11 00:35:23;;;;;;;15.53;10.20;;;;;;;17.38;66.38;100939.77;1655758;83;26591;-75
2021/07/11 00:37:49;;;;;;;16.57;10.25;;;;;;;17.35;66.50;100935.92;1624770;85;27476;-75
2021/07/11 00:40:19;;;;;;;16.62;10.32;;;;;;;17.32;66.58;100939.31;1637512;84;26533;-75
2021/07/11 00:42:47;;;;;;;17.62;10.32;;;;;;;17.29;66.66;100939.52;1640256;85;25934;-74
2021/07/11 00:45:14;;;;;;;16.15;10.35;;;;;;;17.26;66.78;100942.44;1637570;84;26163;-75
2021/07/11 00:47:43;;;;;;;26.62;10.38;;;;;;;17.22;66.90;100936.34;1640115;84;25863;-75
2021/07/11 00:50:14;;;;;;;19.23;11.35;;;;;;;17.20;67.02;100943.22;1634241;84;28382;-75
2021/07/11 00:52:42;;;;;;;13.20;10.65;;;;;;;17.16;67.14;100943.04;1636252;84;25876;-75
2021/07/11 00:55:13;;;;;;;15.45;10.23;;;;;;;17.16;67.26;100947.11;1636618;84;25858;-75
2021/07/11 00:57:41;;;;;;;;;;;;;;;17.15;67.37;100942.66;1644669;84;26117;-75
2021/07/11 01:00:13;;;;;;;12.45;9.73;;;;;;;17.14;67.61;100941.41;1645078;84;26388;-75
2021/07/11 01:03:05;;;;;;;13.38;10.15;;;;;;;17.09;67.53;100936.29;1645533;83;27493;-75
2021/07/11 01:05:32;;;;;;;12.68;9.88;;;;;;;17.06;67.57;100936.49;1651878;83;25732;-75
2021/07/11 01:08:25;;;;;;;23.47;10.70;;;;;;;17.04;67.67;100937.08;1656934;84;25895;-76
2021/07/11 01:11:13;;;;;;;17.45;11.78;;;;;;;17.03;67.77;100941.23;1647250;84;26103;-75
2021/07/11 01:13:41;;;;;;;17.90;10.98;;;;;;;17.02;67.87;100942.21;1654258;84;25807;-75
2021/07/11 01:16:13;;;;;;;15.13;10.58;;;;;;;16.98;67.92;100936.61;1645525;84;28129;-75
2021/07/11 01:18:42;;;;;;;17.15;11.05;;;;;;;16.97;68.04;100942.99;1651340;84;25705;-75
2021/07/11 01:21:17;;;;;;;17.62;11.57;;;;;;;16.92;68.07;100947.36;1658792;84;25736;-75
2021/07/11 01:24:01;;;;;;;24.00;11.55;;;;;;;16.91;68.11;100951.52;1643206;83;26119;-75
2021/07/11 01:26:29;;;;;;;17.57;11.43;;;;;;;16.87;68.18;100950.36;1642817;84;25722;-75
2021/07/11 01:28:57;;;;;;;19.42;11.83;;;;;;;16.85;68.34;100945.53;1639314;85;27461;-75
2021/07/11 01:31:27;;;;;;;15.13;11.22;;;;;;;16.85;68.41;100948.72;1653767;84;25919;-75
2021/07/11 01:33:56;;;;;;;20.10;12.75;;;;;;;16.82;68.49;100946.21;1672440;83;25344;-75
2021/07/11 01:36:26;;;;;;;16.27;12.85;;;;;;;16.77;68.49;100949.70;1672131;82;26166;-75
2021/07/11 01:38:56;;;;;;;15.75;11.97;;;;;;;16.71;68.63;100953.66;1638103;84;25785;-75
2021/07/11 01:41:25;;;;;;;16.42;11.63;;;;;;;16.67;68.69;100956.67;1672027;82;27383;-75
2021/07/11 01:43:55;;;;;;;21.33;12.40;;;;;;;16.62;68.82;100952.00;1674698;82;26590;-75
2021/07/11 01:46:23;;;;;;;15.20;11.35;;;;;;;16.53;69.06;100937.21;1675931;82;26517;-75
2021/07/11 01:48:52;;;;;;;16.90;11.83;;;;;;;16.58;69.18;100954.03;1671284;82;26133;-75
2021/07/11 01:51:22;;;;;;;16.95;11.53;;;;;;;16.59;69.24;100951.70;1695100;83;25734;-76
2021/07/11 01:53:51;;;;;;;17.83;12.83;;;;;;;16.57;69.25;100960.41;1663306;83;28246;-75
2021/07/11 01:56:18;;;;;;;18.42;12.58;;;;;;;16.53;69.40;100957.50;1626089;85;25796;-76
2021/07/11 01:58:48;;;;;;;17.05;12.25;;;;;;;16.51;69.49;100954.03;1667961;83;25748;-75
2021/07/11 02:01:19;;;;;;;19.05;12.40;;;;;;;16.49;69.58;100950.55;1684409;83;26794;-75
2021/07/11 02:03:45;;;;;;;20.70;12.50;;;;;;;16.43;69.67;100954.52;1678240;82;25721;-75
2021/07/11 02:06:13;;;;;;;17.30;12.88;;;;;;;16.41;69.80;100960.98;1680342;82;27586;-75
2021/07/11 02:08:44;;;;;;;17.87;12.00;;;;;;;16.39;69.86;100964.27;1680186;82;26450;-75
2021/07/11 02:11:13;;;;;;;;;;;;;;;16.37;69.98;100961.66;1680565;82;25992;-75
2021/07/11 02:13:53;;;;;;;14.68;11.50;;;;;;;16.35;70.12;100964.94;1662003;83;26599;-75
2021/07/11 02:16:30;;;;;;;19.12;13.50;;;;;;;16.33;70.17;100965.52;1645279;84;26483;-75
2021/07/11 02:18:59;;;;;;;21.40;12.85;;;;;;;16.32;70.20;100966.48;1673728;82;27988;-75
2021/07/11 02:21:28;;;;;;;20.23;13.03;;;;;;;16.29;70.24;100972.56;1689048;82;25853;-75
2021/07/11 02:23:59;;;;;;;21.17;13.48;;;;;;;16.27;70.30;100974.50;1671677;83;25820;-74
2021/07/11 02:26:28;;;;;;;17.62;11.80;;;;;;;16.25;70.39;100977.30;1642044;84;26631;-76
2021/07/11 02:28:57;;;;;;;18.17;12.33;;;;;;;16.22;70.44;100977.00;1650853;84;25814;-76
2021/07/11 02:31:33;;;;;;;19.82;14.05;;;;;;;16.19;70.51;100975.84;1655241;83;27354;-76
2021/07/11 02:34:00;;;;;;;18.52;12.55;;;;;;;16.15;70.62;100974.77;1653028;83;26488;-76
2021/07/11 02:36:29;;;;;;;18.45;12.73;;;;;;;16.12;70.65;100973.13;1677746;82;25875;-76
2021/07/11 02:39:08;;;;;;;22.07;14.20;;;;;;;16.09;70.73;100974.66;1646728;84;25806;-76
2021/07/11 02:41:43;;;;;;;21.07;13.00;;;;;;;16.07;70.84;100978.42;1632196;84;25896;-76
2021/07/11 02:44:14;;;;;;;18.90;12.75;;;;;;;16.08;70.99;100976.10;1676878;82;27531;-76
2021/07/11 02:46:47;;;;;;;18.60;12.78;;;;;;;16.08;71.03;100972.05;1674834;84;25837;-74
2021/07/11 02:49:18;;;;;;;17.23;12.25;;;;;;;16.08;71.11;100976.10;1664040;83;26482;-73
2021/07/11 02:51:49;;;;;;;24.67;13.15;;;;;;;16.07;71.12;100973.88;1669752;83;26744;-73
2021/07/11 02:54:19;;;;;;;20.55;13.03;;;;;;;16.07;71.13;100977.06;1653208;84;26687;-73
2021/07/11 02:56:50;;;;;;;19.45;13.20;;;;;;;16.00;71.21;100965.75;1660764;83;28108;-73
2021/07/11 02:59:16;;;;;;;17.75;12.95;;;;;;;16.05;71.27;100980.34;1677760;83;34152;-73
2021/07/11 03:01:44;;;;;;;18.12;13.18;;;;;;;16.04;71.26;100982.18;1649338;83;26671;-73
2021/07/11 03:04:15;;;;;;;18.27;12.63;;;;;;;16.02;71.41;100991.34;1687012;82;26757;-73
2021/07/11 03:06:42;;;;;;;18.03;12.13;;;;;;;16.01;71.46;100995.02;1678710;81;25751;-73
2021/07/11 03:09:08;;;;;;;18.70;13.13;;;;;;;16.02;71.50;100992.22;1681958;83;27441;-73
2021/07/11 03:11:42;;;;;;;16.93;12.98;;;;;;;16.01;71.54;100994.53;1653818;83;26519;-73
2021/07/11 03:14:12;;;;;;;19.98;13.25;;;;;;;16.01;71.61;100996.37;1678409;81;26557;-73
2021/07/11 03:16:45;;;;;;;20.02;13.55;;;;;;;16.00;71.64;100994.62;1679533;82;26018;-73
2021/07/11 03:19:12;;;;;;;24.70;13.22;;;;;;;15.99;71.71;100996.94;1647218;84;25843;-73
2021/07/11 03:21:40;;;;;;;16.67;12.80;;;;;;;16.01;71.75;101001.77;1700826;81;27549;-73
2021/07/11 03:24:08;;;;;;;21.62;12.68;;;;;;;15.99;71.80;100995.59;1699443;81;25893;-74
2021/07/11 03:26:35;;;;;;;23.80;13.90;;;;;;;15.97;71.85;100995.68;1704915;81;25931;-73
2021/07/11 03:29:06;;;;;;;21.97;13.53;;;;;;;15.98;71.89;101000.61;1678718;83;26815;-73
2021/07/11 03:31:34;;;;;;;18.00;12.55;;;;;;;15.99;71.98;101000.99;1672005;83;25882;-76
2021/07/11 03:34:03;;;;;;;22.13;14.68;;;;;;;16.02;72.05;101003.52;1691579;82;27467;-75
2021/07/11 03:36:31;;;;;;;23.92;14.73;;;;;;;16.02;72.06;101002.16;1696131;81;25828;-74
2021/07/11 03:39:02;;;;;;;20.23;13.70;;;;;;;16.03;72.06;101005.25;1695565;82;25985;-74
2021/07/11 03:41:33;;;;;;;24.02;14.60;;;;;;;16.04;72.15;101009.70;1697615;82;26101;-74
2021/07/11 03:44:00;;;;;;;18.27;13.60;;;;;;;16.04;72.18;101007.00;1704706;81;25698;-75
2021/07/11 03:46:31;;;;;;;22.75;14.85;;;;;;;16.07;72.25;101010.87;1695701;82;27549;-75
2021/07/11 03:49:02;;;;;;;18.85;13.78;;;;;;;16.07;72.29;101006.81;1692804;82;25852;-74
2021/07/11 03:51:34;;;;;;;16.00;13.48;;;;;;;16.08;72.28;101009.91;1677474;82;25869;-75
2021/07/11 03:54:03;;;;;;;20.37;14.35;;;;;;;16.09;72.31;101009.81;1702951;82;26159;-74
2021/07/11 03:56:35;;;;;;;22.05;13.80;;;;;;;16.12;72.40;101012.81;1697905;81;26339;-75
2021/07/11 03:59:06;;;;;;;19.80;14.58;;;;;;;16.15;72.41;101014.85;1688554;81;27431;-74
2021/07/11 04:01:37;;;;;;;22.50;14.68;;;;;;;16.18;72.43;101015.14;1694865;82;25825;-75
2021/07/11 04:04:08;;;;;;;21.80;14.03;;;;;;;16.18;72.48;101015.14;1697278;81;25777;-74
2021/07/11 04:06:38;;;;;;;18.10;13.80;;;;;;;16.22;72.53;101022.11;1698450;81;26010;-74
2021/07/11 04:09:07;;;;;;;34.83;15.23;;;;;;;16.25;72.51;101016.52;1693550;81;26460;-75
2021/07/11 04:11:38;;;;;;;19.45;14.55;;;;;;;16.25;72.49;101016.52;1698990;82;27454;-74
2021/07/11 04:14:05;;;;;;;22.35;13.60;;;;;;;16.28;72.54;101016.81;1695873;81;25787;-74
2021/07/11 04:16:34;;;;;;;20.12;13.93;;;;;;;16.31;72.61;101017.97;1698460;82;25854;-74
2021/07/11 04:19:04;;;;;;;17.17;13.65;;;;;;;16.35;72.64;101023.10;1693293;81;26820;-75
2021/07/11 04:21:33;;;;;;;22.15;14.47;;;;;;;16.39;72.63;101015.19;1700003;82;25815;-75
2021/07/11 04:24:00;;;;;;;17.25;13.78;;;;;;;16.40;72.55;101020.98;1717128;81;27485;-74
2021/07/11 04:26:26;;;;;;;20.12;12.88;;;;;;;16.42;72.67;101028.52;1707472;81;26059;-74
2021/07/11 04:28:53;;;;;;;16.60;13.60;;;;;;;16.47;72.69;101022.83;1681774;82;25752;-75
2021/07/11 04:31:22;;;;;;;18.67;13.18;;;;;;;16.51;72.71;101017.14;1712977;81;26697;-74
2021/07/11 04:33:51;;;;;;;17.05;13.30;;;;;;;16.56;72.65;101023.13;1690469;81;25722;-74
2021/07/11 04:36:19;;;;;;;21.12;13.28;;;;;;;16.60;72.63;101015.69;1687170;83;26999;-75
2021/07/11 04:38:47;;;;;;;18.82;13.72;;;;;;;16.65;72.67;101016.79;1690308;82;25758;-74
2021/07/11 04:41:14;;;;;;;23.57;12.58;;;;;;;16.66;72.65;101026.17;1688922;81;25855;-74
2021/07/11 04:43:44;;;;;;;17.02;12.58;;;;;;;16.71;72.68;101022.69;1685298;82;27472;-74
2021/07/11 04:46:09;;;;;;;18.98;12.93;;;;;;;16.77;72.64;101020.95;1689375;81;25816;-75
2021/07/11 04:48:37;;;;;;;23.65;13.38;;;;;;;16.82;72.67;101024.23;1684774;83;27107;-74
2021/07/11 04:51:06;;;;;;;15.10;11.33;;;;;;;16.87;72.64;101028.01;1682682;83;25736;-74
2021/07/11 04:53:35;;;;;;;16.42;12.15;;;;;;;16.94;72.71;101024.42;1685005;81;25721;-75
2021/07/11 04:56:04;;;;;;;27.00;13.93;;;;;;;17.03;72.64;101024.71;1682017;81;25790;-75
2021/07/11 04:58:32;;;;;;;15.03;11.43;;;;;;;17.08;72.65;101022.58;1685622;81;25807;-75
2021/07/11 05:00:58;;;;;;;20.30;13.43;;;;;;;17.20;72.79;101026.33;1682674;81;27320;-74
2021/07/11 05:03:24;;;;;;;20.57;13.72;;;;;;;17.31;72.61;101022.44;1689767;81;25751;-74
2021/07/11 05:05:53;;;;;;;19.75;12.60;;;;;;;17.36;72.55;101028.91;1690485;81;26637;-75
2021/07/11 05:08:19;;;;;;;17.98;11.97;;;;;;;17.42;72.51;101028.52;1684278;81;26004;-75
2021/07/11 05:10:46;;;;;;;18.67;12.10;;;;;;;17.50;72.55;101021.61;1699424;81;25914;-74
2021/07/11 05:13:12;;;;;;;19.23;11.97;;;;;;;17.58;72.50;101021.11;1683334;83;27552;-74
2021/07/11 05:15:40;;;;;;;16.55;12.15;;;;;;;17.65;72.45;101025.63;1686749;81;25787;-76
2021/07/11 05:18:09;;;;;;;19.57;12.43;;;;;;;17.74;72.47;101027.28;1690784;81;26430;-74
2021/07/11 05:20:36;;;;;;;17.35;11.65;;;;;;;17.80;72.34;101020.09;1682422;83;25876;-76
2021/07/11 05:23:05;;;;;;;14.30;11.18;;;;;;;17.84;72.29;101024.33;1694729;82;25784;-78
2021/07/11 05:25:36;;;;;;;21.65;11.65;;;;;;;17.90;72.24;101019.47;1698079;81;27541;-77
2021/07/11 05:28:04;;;;;;;17.65;11.80;;;;;;;17.97;72.28;101020.30;1684680;81;25739;-75
2021/07/11 05:30:32;;;;;;;14.50;11.38;;;;;;;18.03;72.18;101017.66;1685546;83;26593;-74
2021/07/11 05:32:59;;;;;;;18.42;11.18;;;;;;;18.08;72.13;101015.50;1686161;83;26065;-77
2021/07/11 05:35:27;;;;;;;13.60;10.53;;;;;;;18.12;72.14;101020.61;1689797;82;25792;-74
2021/07/11 05:37:53;;;;;;;15.55;11.05;;;;;;;18.20;72.09;101024.15;1693949;82;27536;-76
2021/07/11 05:40:21;;;;;;;18.42;11.20;;;;;;;18.27;72.04;101026.79;1695192;81;26143;-76
2021/07/11 05:42:54;;;;;;;16.87;11.20;;;;;;;18.32;71.94;101024.63;1699258;81;25880;-77
2021/07/11 05:45:20;;;;;;;19.67;11.55;;;;;;;18.38;71.96;101023.33;1698694;81;26386;-75
2021/07/11 05:47:47;;;;;;;25.80;11.30;;;;;;;18.45;71.93;101017.36;1692472;81;25836;-76
2021/07/11 05:50:14;;;;;;;16.07;10.98;;;;;;;18.56;71.89;101024.75;1692879;81;27468;-75
2021/07/11 05:52:42;;;;;;;21.62;10.58;;;;;;;18.65;71.83;101022.78;1637199;85;26628;-74
2021/07/11 05:55:11;;;;;;;19.15;10.15;;;;;;;18.75;71.71;101033.36;1666965;83;25915;-77
2021/07/11 05:57:37;;;;;;;14.78;10.60;;;;;;;18.82;71.67;101020.22;1714037;81;26072;-74
2021/07/11 06:00:07;;;;;;;15.00;10.23;;;;;;;18.90;71.54;101014.23;1695808;81;25814;-77
2021/07/11 06:02:33;;;;;;;13.85;10.28;;;;;;;18.96;71.51;101020.58;1694605;82;27554;-74
2021/07/11 06:04:59;;;;;;;18.82;8.88;;;;;;;19.04;71.44;101014.10;1695127;82;25958;-77
2021/07/11 06:07:29;;;;;;;18.40;9.53;;;;;;;19.11;71.35;101014.91;1668457;82;26368;-76
2021/07/11 06:09:57;;;;;;;15.08;9.80;;;;;;;19.20;71.29;101017.92;1672735;83;26105;-76
2021/07/11 06:12:25;;;;;;;18.80;10.32;;;;;;;19.28;71.21;101015.52;1695067;81;26080;-75
2021/07/11 06:14:52;;;;;;;12.00;9.18;;;;;;;19.36;71.13;101015.81;1701559;82;54252;-75
2021/07/11 06:17:18;;;;;;;14.28;8.88;;;;;;;19.44;71.01;101014.75;1695615;82;25810;-76
2021/07/11 06:19:44;;;;;;;13.18;9.03;;;;;;;19.51;70.93;101009.73;1668959;82;26319;-75
2021/07/11 06:22:10;;;;;;;13.78;7.80;;;;;;;19.59;70.83;101014.13;1691597;81;28282;-74
2021/07/11 06:24:36;;;;;;;11.75;7.80;;;;;;;19.65;70.74;101017.27;1695761;81;27217;-76
2021/07/11 06:27:06;;;;;;;9.40;7.78;;;;;;;19.72;70.66;101007.66;1704730;81;27539;-75
2021/07/11 06:29:32;;;;;;;10.70;8.20;;;;;;;19.81;70.59;101009.30;1696150;82;25767;-74
2021/07/11 06:31:58;;;;;;;10.58;7.53;;;;;;;19.90;70.46;101013.55;1703446;82;25833;-77
2021/07/11 06:34:25;;;;;;;10.10;7.12;;;;;;;19.99;70.35;101005.17;1686938;81;26093;-75
2021/07/11 06:36:52;;;;;;;8.95;7.37;;;;;;;20.06;70.22;101008.66;1659257;83;25813;-75
2021/07/11 06:39:18;;;;;;;12.93;6.58;;;;;;;20.12;70.11;101006.45;1666981;83;27407;-75
2021/07/11 06:41:44;;;;;;;11.60;6.97;;;;;;;20.16;70.00;101010.18;1635977;84;25813;-75
2021/07/11 06:44:12;;;;;;;11.22;7.17;;;;;;;20.23;69.89;101006.00;1675056;83;25375;-76
2021/07/11 06:46:38;;;;;;;10.03;7.50;;;;;;;20.29;69.81;101012.32;1632984;86;28185;-76
2021/07/11 06:49:04;;;;;;;12.53;7.28;;;;;;;20.38;69.74;101011.64;1663401;83;25830;-74
2021/07/11 06:51:32;;;;;;;10.43;7.03;;;;;;;20.49;69.64;101009.92;1667152;83;27527;-76
2021/07/11 06:53:58;;;;;;;9.08;6.53;;;;;;;20.54;69.54;101007.70;1660242;83;25867;-76
2021/07/11 06:56:26;;;;;;;8.08;6.00;;;;;;;20.63;69.50;101010.56;1671718;83;25842;-74
2021/07/11 06:58:53;;;;;;;10.48;5.87;;;;;;;20.81;69.21;101002.75;1665565;84;26100;-75
2021/07/11 07:01:19;;;;;;;8.28;5.70;;;;;;;20.90;68.95;101010.18;1664224;84;25850;-72
2021/07/11 07:03:45;;;;;;;9.35;5.90;;;;;;;20.90;68.95;101010.18;1672916;83;29635;-73
2021/07/11 07:06:12;;;;;;;10.20;5.28;;;;;;;20.99;69.05;101009.93;1666035;84;26433;-74
2021/07/11 07:08:39;;;;;;;6.85;4.95;;;;;;;21.08;68.97;101005.09;1656692;83;25872;-76
2021/07/11 07:11:06;;;;;;;14.63;5.75;;;;;;;21.13;68.55;100986.50;1663123;83;26438;-76
2021/07/11 07:13:32;;;;;;;7.33;5.70;;;;;;;21.13;68.55;100986.50;1644713;84;26066;-77
2021/07/11 07:15:58;;;;;;;9.55;5.55;;;;;;;21.31;68.40;101003.24;1672152;83;27423;-76
2021/07/11 07:18:24;;;;;;;6.75;4.83;;;;;;;21.34;68.25;100992.08;1663442;84;25970;-76
2021/07/11 07:20:51;;;;;;;6.53;4.97;;;;;;;21.43;68.14;101004.95;1654982;84;25725;-75
2021/07/11 07:23:19;;;;;;;5.35;4.37;;;;;;;21.40;68.05;100980.66;1663507;84;26012;-76
2021/07/11 07:25:44;;;;;;;4.97;3.87;;;;;;;21.58;67.92;100998.22;1660322;83;25812;-75
2021/07/11 07:28:11;;;;;;;10.13;4.25;;;;;;;21.67;67.80;100997.45;1664768;83;27527;-74
2021/07/11 07:30:38;;;;;;;3.98;3.58;;;;;;;21.86;67.48;100989.94;1667932;83;26066;-75
2021/07/11 07:33:04;;;;;;;6.25;3.70;;;;;;;21.86;67.48;100989.94;1656844;83;25784;-71
2021/07/11 07:35:30;;;;;;;4.53;3.98;;;;;;;21.95;67.28;100991.02;1669714;82;26125;-72
2021/07/11 07:37:57;;;;;;;5.28;3.87;;;;;;;22.04;67.03;100984.80;1664911;86;25934;-70
2021/07/11 07:40:23;;;;;;;7.58;4.15;;;;;;;22.10;66.78;100982.91;1664822;86;28534;-73
2021/07/11 07:42:51;;;;;;;6.78;4.00;;;;;;;22.19;66.63;100986.20;1664625;86;25743;-73
2021/07/11 07:45:17;;;;;;;6.10;3.35;;;;;;;22.31;66.44;100983.77;1664631;86;25732;-73
2021/07/11 07:47:44;;;;;;;4.78;4.28;;;;;;;22.44;66.22;100988.17;1665231;83;26229;-74
2021/07/11 07:50:13;;;;;;;11.50;4.90;;;;;;;22.57;66.04;100988.83;1669656;83;26523;-78
2021/07/11 07:52:45;;;;;;;6.25;3.45;;;;;;;22.69;65.78;100983.64;1663294;83;27580;-80
2021/07/11 07:55:14;;;;;;;8.83;3.83;;;;;;;22.83;65.59;100994.24;1668498;83;25824;-75
2021/07/11 07:57:44;;;;;;;9.20;4.25;;;;;;;22.97;65.31;100980.20;1664645;83;25868;-74
2021/07/11 08:00:14;;;;;;;7.03;3.20;;;;;;;23.12;64.99;100976.59;1664731;83;26187;-78
2021/07/11 08:02:44;;;;;;;7.05;3.35;;;;;;;23.25;64.68;100984.03;1692063;82;25873;-76
2021/07/11 08:05:13;;;;;;;6.33;2.92;;;;;;;23.39;64.41;100975.94;1687823;82;27543;-76
2021/07/11 08:07:39;;;;;;;5.35;3.02;;;;;;;23.51;64.01;100980.75;1678551;82;25840;-75
2021/07/11 08:10:08;;;;;;;9.13;2.95;;;;;;;23.64;63.75;100978.14;1680689;82;25793;-76
2021/07/11 08:12:34;;;;;;;3.05;2.70;;;;;;;23.74;63.35;100980.02;1682906;82;26010;-69
2021/07/11 08:15:05;;;;;;;12.40;4.90;;;;;;;23.80;63.10;100976.70;1686788;82;25915;-72
2021/07/11 08:17:33;;;;;;;4.15;3.12;;;;;;;23.87;62.75;100970.52;1681920;82;27326;-72
2021/07/11 08:20:00;;;;;;;3.42;2.80;;;;;;;23.95;62.46;100969.79;1695091;83;26496;-67
2021/07/11 08:22:26;;;;;;;4.33;2.65;;;;;;;24.04;62.26;100969.42;1703093;82;25738;-64
2021/07/11 08:24:54;;;;;;;3.72;2.98;;;;;;;24.12;61.97;100973.16;1698870;81;26165;-62
2021/07/11 08:27:21;;;;;;;7.67;2.90;;;;;;;24.22;61.65;100979.50;1683985;82;25894;-63
2021/07/11 08:29:51;;;;;;;6.62;3.12;;;;;;;24.28;61.32;100969.86;1695914;82;27966;-67
2021/07/11 08:32:18;;;;;;;6.15;2.87;;;;;;;24.39;61.14;100976.55;1680001;82;26777;-65
2021/07/11 08:34:48;;;;;;;5.58;2.95;;;;;;;24.47;60.87;100969.82;1673960;83;25853;-66
2021/07/11 08:37:14;;;;;;;6.03;2.77;;;;;;;24.55;60.62;100973.19;1646239;85;26072;-65
2021/07/11 08:39:42;;;;;;;6.85;2.33;;;;;;;24.65;60.40;100965.80;1659023;84;25854;-68
2021/07/11 08:42:12;;;;;;;2.98;2.52;;;;;;;24.73;60.13;100974.14;1658587;84;27521;-73
2021/07/11 08:44:38;;;;;;;4.72;2.50;;;;;;;24.81;59.91;100978.37;1654003;83;25882;-69
2021/07/11 08:47:05;;;;;;;7.10;2.80;;;;;;;24.83;59.45;100980.96;1648212;83;25798;-73
2021/07/11 08:49:34;;;;;;;4.97;2.67;;;;;;;24.85;59.31;100974.81;1659146;83;27225;-77
2021/07/11 08:52:04;;;;;;;4.12;2.42;;;;;;;24.85;58.90;100979.80;1654695;83;25741;-75
2021/07/11 08:54:32;;;;;;;3.75;2.62;;;;;;;24.76;58.68;100982.58;1648223;84;25833;-76
2021/07/11 08:57:02;;;;;;;8.18;2.67;;;;;;;24.76;58.55;100982.58;1650266;84;26103;-72
2021/07/11 08:59:29;;;;;;;6.13;2.43;;;;;;;24.78;58.31;100981.92;1652744;84;25748;-72
2021/07/11 09:01:58;;;;;;;10.18;3.17;;;;;;;24.75;58.06;100973.48;1653941;83;26029;-73
2021/07/11 09:04:25;;;;;;;5.10;2.72;;;;;;;24.78;58.03;100977.80;1651439;83;25755;-73
2021/07/11 09:06:56;;;;;;;7.47;2.87;;;;;;;24.81;57.90;100979.73;1659058;84;27488;-73
2021/07/11 09:09:29;;;;;;;6.97;3.10;;;;;;;24.86;57.80;100984.27;1654159;83;26163;-75
2021/07/11 09:12:03;;;;;;;7.30;3.12;;;;;;;24.92;57.59;100975.44;1651010;83;26472;-75
2021/07/11 09:14:34;;;;;;;3.00;2.75;;;;;;;24.95;57.40;100978.89;1629306;86;25938;-73
2021/07/11 09:17:03;;;;;;;6.67;2.47;;;;;;;24.93;57.20;100974.93;1638054;84;25791;-70
2021/07/11 09:19:41;;;;;;;3.77;2.60;;;;;;;24.89;56.89;100973.00;1632341;84;28201;-70
2021/07/11 09:22:21;;;;;;;6.33;2.75;;;;;;;24.83;56.79;100969.48;1635141;84;26475;-75
2021/07/11 09:24:58;;;;;;;9.03;2.80;;;;;;;24.86;56.64;100974.67;1630127;84;25902;-73
2021/07/11 09:27:31;;;;;;;6.87;2.60;;;;;;;24.94;56.53;100976.66;1658767;83;26042;-72
2021/07/11 09:30:07;;;;;;;2.95;2.47;;;;;;;25.02;56.44;100971.31;1662533;83;25868;-74
2021/07/11 09:32:40;;;;;;;4.72;2.22;;;;;;;25.07;56.23;100966.74;1647656;84;27558;-74
2021/07/11 09:35:23;;;;;;;6.20;2.30;;;;;;;25.02;55.75;100971.31;1660509;84;26269;-76
2021/07/11 09:37:54;;;;;;;3.77;2.35;;;;;;;25.06;55.56;100969.99;1675404;82;25851;-78
2021/07/11 09:40:23;;;;;;;;;;;;;;;25.14;55.35;100965.12;1668289;83;26974;-79
2021/07/11 09:42:57;;;;;;;2.60;2.40;;;;;;;25.15;54.64;100960.84;1678964;82;25962;-77
2021/07/11 09:45:30;;;;;;;6.15;2.70;;;;;;;25.14;54.82;100970.61;1672728;83;28467;-75
2021/07/11 09:48:07;;;;;;;5.03;2.12;;;;;;;25.28;54.79;100963.23;1665274;84;25881;-79
2021/07/11 09:50:36;;;;;;;7.58;2.52;;;;;;;25.47;54.62;100965.85;1665083;83;25776;-73
2021/07/11 09:53:02;;;;;;;5.28;2.30;;;;;;;25.65;54.45;100966.41;1684318;82;26031;-75
2021/07/11 09:55:35;;;;;;;5.72;2.72;;;;;;;25.79;54.17;100965.87;1657232;84;25907;-73
2021/07/11 09:58:11;;;;;;;3.10;2.40;;;;;;;25.89;54.00;100970.77;1674037;83;27398;-79
2021/07/11 10:00:44;;;;;;;6.58;2.33;;;;;;;26.03;53.78;100974.30;1668890;83;26466;-77
2021/07/11 10:03:18;;;;;;;3.15;2.22;;;;;;;26.14;53.51;100974.05;1670080;83;25788;-74
2021/07/11 10:05:46;;;;;;;5.28;2.65;;;;;;;26.18;53.27;100974.08;1670751;83;26012;-77
2021/07/11 10:08:12;;;;;;;8.73;2.70;;;;;;;26.18;52.91;100963.09;1661992;82;25732;-76
2021/07/11 10:10:43;;;;;;;9.53;2.20;;;;;;;26.14;52.62;100968.55;1672600;83;27568;-78
2021/07/11 10:13:10;;;;;;;4.47;2.00;;;;;;;26.12;52.50;100966.48;1667740;83;25729;-77
2021/07/11 10:15:40;;;;;;;5.65;2.20;;;;;;;25.95;52.11;100951.42;1659941;83;26702;-78
2021/07/11 10:18:13;;;;;;;2.67;2.22;;;;;;;26.08;52.10;100971.94;1638808;85;26373;-77
2021/07/11 10:20:48;;;;;;;6.80;2.40;;;;;;;26.16;51.88;100973.38;1659500;83;25817;-74
2021/07/11 10:23:36;;;;;;;6.20;2.45;;;;;;;26.28;51.69;100971.75;1668956;82;28199;-76
2021/07/11 10:26:14;;;;;;;3.90;2.12;;;;;;;26.44;51.59;100962.28;1664051;83;26230;-76
2021/07/11 10:28:45;;;;;;;7.87;2.37;;;;;;;26.63;51.43;100958.45;1661093;82;25737;-75
2021/07/11 10:31:30;;;;;;;2.40;1.82;;;;;;;26.67;50.96;100963.47;1668118;83;26136;-72
2021/07/11 10:33:57;;;;;;;2.00;1.90;;;;;;;26.70;50.84;100967.27;1668169;83;25861;-71
2021/07/11 10:36:35;;;;;;;3.22;2.37;;;;;;;26.60;50.46;100966.52;1674685;83;27447;-70
2021/07/11 10:39:06;;;;;;;4.72;2.15;;;;;;;26.53;50.31;100961.31;1668466;83;25775;-73
2021/07/11 10:41:34;;;;;;;9.45;2.85;;;;;;;26.50;50.18;100957.52;1658518;83;25725;-73
2021/07/11 10:44:16;;;;;;;4.85;2.35;;;;;;;26.48;49.94;100960.94;1643425;84;26757;-78
2021/07/11 10:46:59;;;;;;;4.65;2.52;;;;;;;26.48;49.94;100955.44;1682754;83;25862;-75
2021/07/11 10:49:37;;;;;;;4.22;2.30;;;;;;;26.42;49.84;100951.96;1670468;83;25690;-73
2021/07/11 10:52:08;;;;;;;4.72;2.20;;;;;;;26.41;49.82;100957.97;1660307;83;26507;-73
2021/07/11 10:54:59;;;;;;;3.83;2.47;;;;;;;26.29;49.68;100952.86;1658772;83;25801;-73
2021/07/11 10:57:35;;;;;;;2.75;2.42;;;;;;;26.19;49.65;100953.83;1654806;83;26409;-73
2021/07/11 11:00:21;;;;;;;5.30;2.67;;;;;;;26.31;49.86;100944.81;1659117;83;25891;-72
2021/07/11 11:02:54;;;;;;;4.08;2.72;;;;;;;26.29;49.20;100941.87;1666583;83;26969;-75
2021/07/11 11:05:25;;;;;;;4.08;2.58;;;;;;;26.20;49.02;100940.44;1684139;83;25783;-76
2021/07/11 11:08:13;;;;;;;4.08;2.65;;;;;;;26.15;49.12;100949.67;1673312;83;25681;-75
2021/07/11 11:10:43;;;;;;;9.98;2.60;;;;;;;26.20;49.15;100943.70;1671365;83;26772;-74
2021/07/11 11:13:20;;;;;;;7.10;2.13;;;;;;;26.24;49.16;100948.36;1670551;83;25785;-74
2021/07/11 11:16:00;;;;;;;6.08;2.33;;;;;;;26.30;49.18;100949.09;1667128;83;28121;-73
2021/07/11 11:18:35;;;;;;;9.05;2.67;;;;;;;26.49;49.21;100941.53;1674222;83;26108;-74
2021/07/11 11:21:17;;;;;;;4.78;2.22;;;;;;;26.65;48.71;100946.78;1668114;83;26069;-72
2021/07/11 11:23:55;;;;;;;3.37;2.08;;;;;;;26.70;48.66;100945.78;1663069;83;27031;-74
2021/07/11 11:26:28;;;;;;;2.75;2.10;;;;;;;26.67;48.49;100949.72;1662443;82;25821;-76
2021/07/11 11:28:58;;;;;;;2.47;2.27;;;;;;;26.68;48.47;100948.69;1662712;83;28132;-75